sensor_id;sensor_type;location;lat;lon;timestamp;temperature;humidity
56761;DHT22;42633;44.494;11.356;2022-10-15T00:02:17;16.90;99.90
56761;DHT22;42633;44.494;11.356;2022-10-15T00:05:27;16.90;99.90
56761;DHT22;42633;44.494;11.356;2022-10-15T00:08:33;16.90;99.90
56761;DHT22;42633;44.494;11.356;2022-10-15T00:11:38;16.90;99.90
56761;DHT22;42633;44.494;11.356;2022-10-15T00:14:43;17.00;99.90
56761;DHT22;42633;44.494;11.356;2022-10-15T00:17:48;16.90;99.90
56761;DHT22;42633;44.494;11.356;2022-10-15T00:20:52;16.90;99.90
56761;DHT22;42633;44.494;11.356;2022-10-15T00:23:58;16.80;99.90
56761;DHT22;42633;44.494;11.356;2022-10-15T00:27:03;16.90;99.90
56761;DHT22;42633;44.494;11.356;2022-10-15T00:30:34;16.90;99.90
56761;DHT22;42633;44.494;11.356;2022-10-15T00:33:39;16.90;99.90
56761;DHT22;42633;44.494;11.356;2022-10-15T00:36:45;16.90;99.90
56761;DHT22;42633;44.494;11.356;2022-10-15T00:39:50;16.90;99.90
56761;DHT22;42633;44.494;11.356;2022-10-15T00:42:57;16.80;99.90
56761;DHT22;42633;44.494;11.356;2022-10-15T00:46:15;16.80;99.90
56761;DHT22;42633;44.494;11.356;2022-10-15T00:53:07;16.80;99.90
56761;DHT22;42633;44.494;11.356;2022-10-15T00:56:18;16.70;99.90
56761;DHT22;42633;44.494;11.356;2022-10-15T00:59:29;16.70;99.90
56761;DHT22;42633;44.494;11.356;2022-10-15T01:02:40;16.70;99.90
56761;DHT22;42633;44.494;11.356;2022-10-15T01:05:51;16.70;99.90
56761;DHT22;42633;44.494;11.356;2022-10-15T01:09:00;16.70;99.90
56761;DHT22;42633;44.494;11.356;2022-10-15T01:12:18;16.60;99.90
56761;DHT22;42633;44.494;11.356;2022-10-15T01:19:31;16.60;99.90
56761;DHT22;42633;44.494;11.356;2022-10-15T01:30:38;16.60;99.90
56761;DHT22;42633;44.494;11.356;2022-10-15T01:34:23;16.60;99.90
56761;DHT22;42633;44.494;11.356;2022-10-15T01:37:54;16.60;99.90
56761;DHT22;42633;44.494;11.356;2022-10-15T01:41:17;16.50;99.90
56761;DHT22;42633;44.494;11.356;2022-10-15T01:44:34;16.60;99.90
56761;DHT22;42633;44.494;11.356;2022-10-15T01:48:06;16.70;99.90
56761;DHT22;42633;44.494;11.356;2022-10-15T01:51:15;16.70;99.90
56761;DHT22;42633;44.494;11.356;2022-10-15T01:54:24;16.70;99.90
56761;DHT22;42633;44.494;11.356;2022-10-15T01:57:33;16.70;99.90
56761;DHT22;42633;44.494;11.356;2022-10-15T02:00:39;16.70;99.90
56761;DHT22;42633;44.494;11.356;2022-10-15T02:03:51;16.70;99.90
56761;DHT22;42633;44.494;11.356;2022-10-15T02:14:07;16.70;99.90
56761;DHT22;42633;44.494;11.356;2022-10-15T02:17:16;16.70;99.90
56761;DHT22;42633;44.494;11.356;2022-10-15T02:20:44;16.70;99.90
56761;DHT22;42633;44.494;11.356;2022-10-15T02:24:19;16.70;99.90
56761;DHT22;42633;44.494;11.356;2022-10-15T02:27:55;16.70;99.90
56761;DHT22;42633;44.494;11.356;2022-10-15T02:31:09;16.70;99.90
56761;DHT22;42633;44.494;11.356;2022-10-15T02:34:19;16.70;99.90
56761;DHT22;42633;44.494;11.356;2022-10-15T02:37:26;16.70;99.90
56761;DHT22;42633;44.494;11.356;2022-10-15T02:40:33;16.80;99.90
56761;DHT22;42633;44.494;11.356;2022-10-15T02:43:40;16.80;99.90
56761;DHT22;42633;44.494;11.356;2022-10-15T02:46:45;16.80;99.90
56761;DHT22;42633;44.494;11.356;2022-10-15T02:49:52;16.80;99.90
56761;DHT22;42633;44.494;11.356;2022-10-15T02:52:57;16.70;99.90
56761;DHT22;42633;44.494;11.356;2022-10-15T02:56:02;16.70;99.90
56761;DHT22;42633;44.494;11.356;2022-10-15T02:59:07;16.60;99.90
56761;DHT22;42633;44.494;11.356;2022-10-15T03:02:12;16.60;99.90
56761;DHT22;42633;44.494;11.356;2022-10-15T03:05:18;16.50;99.90
56761;DHT22;42633;44.494;11.356;2022-10-15T03:08:22;16.50;99.90
56761;DHT22;42633;44.494;11.356;2022-10-15T03:11:27;16.50;99.90
56761;DHT22;42633;44.494;11.356;2022-10-15T03:14:32;16.40;99.90
56761;DHT22;42633;44.494;11.356;2022-10-15T03:17:37;16.40;99.90
56761;DHT22;42633;44.494;11.356;2022-10-15T03:20:42;16.40;99.90
56761;DHT22;42633;44.494;11.356;2022-10-15T03:23:46;16.40;99.90
56761;DHT22;42633;44.494;11.356;2022-10-15T03:26:56;16.30;99.90
56761;DHT22;42633;44.494;11.356;2022-10-15T03:30:00;16.30;99.90
56761;DHT22;42633;44.494;11.356;2022-10-15T03:33:07;16.20;99.90
56761;DHT22;42633;44.494;11.356;2022-10-15T03:36:12;16.20;99.90
56761;DHT22;42633;44.494;11.356;2022-10-15T03:39:20;16.20;99.90
56761;DHT22;42633;44.494;11.356;2022-10-15T03:42:28;16.10;99.90
56761;DHT22;42633;44.494;11.356;2022-10-15T03:45:34;16.10;99.90
56761;DHT22;42633;44.494;11.356;2022-10-15T03:48:53;16.10;99.90
56761;DHT22;42633;44.494;11.356;2022-10-15T03:51:58;16.10;99.90
56761;DHT22;42633;44.494;11.356;2022-10-15T03:55:04;16.10;99.90
56761;DHT22;42633;44.494;11.356;2022-10-15T03:58:09;16.00;99.90
56761;DHT22;42633;44.494;11.356;2022-10-15T04:01:19;16.10;99.90
56761;DHT22;42633;44.494;11.356;2022-10-15T04:04:25;16.10;99.90
56761;DHT22;42633;44.494;11.356;2022-10-15T04:07:30;16.10;99.90
56761;DHT22;42633;44.494;11.356;2022-10-15T04:10:37;16.00;99.90
56761;DHT22;42633;44.494;11.356;2022-10-15T04:13:47;16.00;99.90
56761;DHT22;42633;44.494;11.356;2022-10-15T04:16:55;15.90;99.90
56761;DHT22;42633;44.494;11.356;2022-10-15T04:20:00;15.90;99.90
56761;DHT22;42633;44.494;11.356;2022-10-15T04:23:06;15.90;99.90
56761;DHT22;42633;44.494;11.356;2022-10-15T04:26:12;15.80;99.90
56761;DHT22;42633;44.494;11.356;2022-10-15T04:29:19;15.80;99.90
56761;DHT22;42633;44.494;11.356;2022-10-15T04:32:24;15.80;99.90
56761;DHT22;42633;44.494;11.356;2022-10-15T04:35:36;15.70;99.90
56761;DHT22;42633;44.494;11.356;2022-10-15T04:38:46;15.70;99.90
56761;DHT22;42633;44.494;11.356;2022-10-15T04:41:54;15.60;99.90
56761;DHT22;42633;44.494;11.356;2022-10-15T04:45:03;15.60;99.90
56761;DHT22;42633;44.494;11.356;2022-10-15T04:48:08;15.60;99.90
56761;DHT22;42633;44.494;11.356;2022-10-15T04:51:17;15.60;99.90
56761;DHT22;42633;44.494;11.356;2022-10-15T04:54:40;15.60;99.90
56761;DHT22;42633;44.494;11.356;2022-10-15T04:57:45;15.60;99.90
56761;DHT22;42633;44.494;11.356;2022-10-15T05:01:06;15.50;99.90
56761;DHT22;42633;44.494;11.356;2022-10-15T05:04:30;15.60;99.90
56761;DHT22;42633;44.494;11.356;2022-10-15T05:07:35;15.50;99.90
56761;DHT22;42633;44.494;11.356;2022-10-15T05:10:45;15.60;99.90
56761;DHT22;42633;44.494;11.356;2022-10-15T05:13:50;15.60;99.90
56761;DHT22;42633;44.494;11.356;2022-10-15T05:16:59;15.60;99.90
56761;DHT22;42633;44.494;11.356;2022-10-15T05:20:04;15.60;99.90
56761;DHT22;42633;44.494;11.356;2022-10-15T05:23:09;15.60;99.90
56761;DHT22;42633;44.494;11.356;2022-10-15T05:26:20;15.50;99.90
56761;DHT22;42633;44.494;11.356;2022-10-15T05:29:43;15.50;99.90
56761;DHT22;42633;44.494;11.356;2022-10-15T05:32:53;15.60;99.90
56761;DHT22;42633;44.494;11.356;2022-10-15T05:36:12;15.60;99.90
56761;DHT22;42633;44.494;11.356;2022-10-15T05:39:17;15.60;99.90
56761;DHT22;42633;44.494;11.356;2022-10-15T05:42:23;15.60;99.90
56761;DHT22;42633;44.494;11.356;2022-10-15T05:45:34;15.50;99.90
56761;DHT22;42633;44.494;11.356;2022-10-15T05:48:50;15.50;99.90
56761;DHT22;42633;44.494;11.356;2022-10-15T05:51:55;15.50;99.90
56761;DHT22;42633;44.494;11.356;2022-10-15T05:55:15;15.50;99.90
56761;DHT22;42633;44.494;11.356;2022-10-15T05:58:20;15.50;99.90
56761;DHT22;42633;44.494;11.356;2022-10-15T06:01:24;15.50;99.90
56761;DHT22;42633;44.494;11.356;2022-10-15T06:04:36;15.60;99.90
56761;DHT22;42633;44.494;11.356;2022-10-15T06:08:03;15.60;99.90
56761;DHT22;42633;44.494;11.356;2022-10-15T06:11:41;15.60;99.90
56761;DHT22;42633;44.494;11.356;2022-10-15T06:14:51;15.70;99.90
56761;DHT22;42633;44.494;11.356;2022-10-15T06:18:16;15.80;99.90
56761;DHT22;42633;44.494;11.356;2022-10-15T06:22:07;15.90;99.90
56761;DHT22;42633;44.494;11.356;2022-10-15T06:25:23;15.90;99.90
56761;DHT22;42633;44.494;11.356;2022-10-15T06:28:57;16.00;99.90
56761;DHT22;42633;44.494;11.356;2022-10-15T06:32:30;16.10;99.90
56761;DHT22;42633;44.494;11.356;2022-10-15T06:35:37;16.20;99.90
56761;DHT22;42633;44.494;11.356;2022-10-15T06:38:46;16.30;99.90
56761;DHT22;42633;44.494;11.356;2022-10-15T06:41:51;16.50;99.90
56761;DHT22;42633;44.494;11.356;2022-10-15T06:44:55;16.60;99.90
56761;DHT22;42633;44.494;11.356;2022-10-15T06:48:04;16.70;99.90
56761;DHT22;42633;44.494;11.356;2022-10-15T06:51:33;16.90;99.90
56761;DHT22;42633;44.494;11.356;2022-10-15T06:55:26;17.10;99.90
56761;DHT22;42633;44.494;11.356;2022-10-15T06:59:17;17.20;99.90
56761;DHT22;42633;44.494;11.356;2022-10-15T07:07:20;17.50;99.90
56761;DHT22;42633;44.494;11.356;2022-10-15T07:15:20;17.80;99.90
56761;DHT22;42633;44.494;11.356;2022-10-15T07:19:11;18.00;99.90
56761;DHT22;42633;44.494;11.356;2022-10-15T07:37:36;18.80;99.90
56761;DHT22;42633;44.494;11.356;2022-10-15T07:41:18;19.10;99.90
56761;DHT22;42633;44.494;11.356;2022-10-15T07:50:39;19.30;99.90
56761;DHT22;42633;44.494;11.356;2022-10-15T07:57:58;19.50;99.90
56761;DHT22;42633;44.494;11.356;2022-10-15T08:01:36;19.60;99.90
56761;DHT22;42633;44.494;11.356;2022-10-15T08:05:00;19.60;99.80
56761;DHT22;42633;44.494;11.356;2022-10-15T08:08:48;19.60;99.80
56761;DHT22;42633;44.494;11.356;2022-10-15T08:12:38;19.80;99.50
56761;DHT22;42633;44.494;11.356;2022-10-15T08:16:33;20.00;99.30
56761;DHT22;42633;44.494;11.356;2022-10-15T08:25:16;20.30;98.80
56761;DHT22;42633;44.494;11.356;2022-10-15T08:28:51;20.40;98.50
56761;DHT22;42633;44.494;11.356;2022-10-15T08:36:50;20.80;98.00
56761;DHT22;42633;44.494;11.356;2022-10-15T08:40:47;21.00;97.60
56761;DHT22;42633;44.494;11.356;2022-10-15T08:49:18;21.10;97.30
56761;DHT22;42633;44.494;11.356;2022-10-15T09:03:27;21.40;96.80
56761;DHT22;42633;44.494;11.356;2022-10-15T09:07:45;21.30;96.80
56761;DHT22;42633;44.494;11.356;2022-10-15T09:30:51;22.10;95.80
56761;DHT22;42633;44.494;11.356;2022-10-15T10:01:26;23.20;93.60
56761;DHT22;42633;44.494;11.356;2022-10-15T10:05:46;23.50;93.30
56761;DHT22;42633;44.494;11.356;2022-10-15T10:14:46;22.90;93.80
56761;DHT22;42633;44.494;11.356;2022-10-15T10:19:13;22.90;93.90
56761;DHT22;42633;44.494;11.356;2022-10-15T10:24:36;23.30;93.40
56761;DHT22;42633;44.494;11.356;2022-10-15T10:38:22;23.80;92.50
56761;DHT22;42633;44.494;11.356;2022-10-15T10:47:55;24.00;92.00
56761;DHT22;42633;44.494;11.356;2022-10-15T19:41:05;20.60;98.60
